Alton, Utah
Current Conditions -  °F | °C
As of 11:53 PM on Thursday 18 Dec 2014 (Local Time) from KBCE Reporting Station
Clear Clear  
Wind Chill:   Ceiling: Unl
Heat Index: 13°   Visibility: 10mi
Dew Point: 10°   Wind: 5mph
Humidity: 88%   Direction: 240°WSW
Pressure: 30.21"   Gusts: NA
Location:  37.44°N, 112.48°W
Report Text: KBCE 190653Z AUTO 24004KT 10SM CLR M11/M12 A3021 RMK AO2 SLP236 I1000 T11061122 400111128
Loading
Personal Weather Stations






























Interactive Weather Map New forecast layout! Learn more

10-Day Weather Forecast

Advertisements
Track Severe Weather on mobile